Minneapolis, Minnesota
Traffic Map
Current Weather Conditions
Minneapolis, Minnesota
Scattered Clouds
Scattered Clouds
-5°
Feels Like: -8°
Wind Chill: -8° Ceiling: Unl
Heat Index: -5° Visibility: 10mi
Dew Point: -11° Wind: 5mph
Humidity: 63% Direction: 130° (SE)
Pressure: 30.05in Gusts: 0mph
Raw Report DataKMSP 252353Z 13004KT 10SM SCT250 M05/M11 A3005 RMK AO2 SLP190 4/001 T10501111 11028 21056 53004
Traffic Incident Summary
Active as of:
Severity:
Category:
InformationThere was an issue retrieving the traffic information for this location. Please try a different location or try again shortly.
Advertisements
Track Severe Weather on mobile